createdAt,value
2023-03-31T00:00:30.497Z,0
2023-03-31T00:01:31.508Z,0
2023-03-31T00:02:32.508Z,0
2023-03-31T00:03:33.897Z,0
2023-03-31T00:04:35.605Z,0
2023-03-31T00:05:37.042Z,0.1
2023-03-31T00:06:38.477Z,0.14
2023-03-31T00:07:39.455Z,0.11
2023-03-31T00:08:40.523Z,0
2023-03-31T00:09:41.502Z,0
2023-03-31T00:10:42.503Z,0.16
2023-03-31T00:11:43.422Z,0
2023-03-31T00:12:44.446Z,0
2023-03-31T00:13:45.571Z,0
2023-03-31T00:14:46.529Z,0
2023-03-31T00:15:47.505Z,0
2023-03-31T00:16:48.513Z,0
2023-03-31T00:17:50.010Z,0
2023-03-31T00:18:51.532Z,0
2023-03-31T00:19:52.863Z,0
2023-03-31T00:20:54.475Z,0
2023-03-31T00:21:55.525Z,0
2023-03-31T00:22:56.502Z,0
2023-03-31T00:23:57.502Z,0
2023-03-31T00:24:58.462Z,0
2023-03-31T00:25:59.624Z,0
2023-03-31T00:27:00.504Z,0
2023-03-31T00:28:01.571Z,0
2023-03-31T00:29:02.530Z,0
2023-03-31T00:30:03.635Z,0
2023-03-31T00:31:04.668Z,0
2023-03-31T00:32:05.476Z,0
2023-03-31T00:33:06.541Z,0
2023-03-31T00:34:07.618Z,0
2023-03-31T00:35:08.500Z,0
2023-03-31T00:36:09.705Z,0
2023-03-31T00:37:10.500Z,0
2023-03-31T00:38:11.517Z,0
2023-03-31T00:39:12.518Z,0
2023-03-31T00:40:13.548Z,0
2023-03-31T00:41:14.461Z,0
2023-03-31T00:42:15.959Z,0
2023-03-31T00:43:17.484Z,0
2023-03-31T00:44:18.545Z,0
2023-03-31T00:45:19.505Z,0
2023-03-31T00:46:20.549Z,0
2023-03-31T00:47:21.644Z,0
2023-03-31T00:48:22.545Z,0
2023-03-31T00:49:23.555Z,0
2023-03-31T00:50:24.582Z,0
2023-03-31T00:51:25.519Z,0
2023-03-31T00:52:26.460Z,0
2023-03-31T00:53:27.484Z,0
2023-03-31T00:54:28.500Z,0
2023-03-31T00:55:29.537Z,0
2023-03-31T00:56:30.767Z,0
2023-03-31T00:57:31.548Z,0
2023-03-31T00:58:32.486Z,0
2023-03-31T00:59:33.502Z,0
2023-03-31T01:00:34.502Z,0
2023-03-31T01:01:35.479Z,0
2023-03-31T01:02:36.705Z,0
2023-03-31T01:03:37.584Z,0
2023-03-31T01:04:38.521Z,0
2023-03-31T01:05:39.567Z,0
2023-03-31T01:06:40.559Z,0
2023-03-31T01:07:41.503Z,0
2023-03-31T01:08:42.560Z,0
2023-03-31T01:09:43.478Z,0
2023-03-31T01:10:44.482Z,0
2023-03-31T01:11:45.522Z,0
2023-03-31T01:12:46.485Z,0
2023-03-31T01:13:47.500Z,0
2023-03-31T01:14:48.433Z,0
2023-03-31T01:15:50.181Z,0
2023-03-31T01:16:51.773Z,0
2023-03-31T01:17:52.765Z,0
2023-03-31T01:18:53.520Z,0
2023-03-31T01:19:54.537Z,0
2023-03-31T01:20:55.540Z,0
2023-03-31T01:21:56.463Z,0
2023-03-31T01:22:57.544Z,0
2023-03-31T01:23:58.556Z,0
2023-03-31T01:24:59.516Z,0
2023-03-31T01:26:01.841Z,0
2023-03-31T01:27:03.520Z,0
2023-03-31T01:28:04.646Z,0
2023-03-31T01:29:05.509Z,0
2023-03-31T01:30:06.565Z,0
2023-03-31T01:31:07.642Z,0
2023-03-31T01:32:08.568Z,0
2023-03-31T01:33:09.561Z,0
2023-03-31T01:35:47.662Z,0
2023-03-31T01:36:48.642Z,0
2023-03-31T01:37:50.174Z,0
2023-03-31T01:38:51.574Z,0
2023-03-31T01:39:52.593Z,0
2023-03-31T01:40:53.455Z,0
2023-03-31T01:41:54.662Z,0
2023-03-31T01:42:55.691Z,0
2023-03-31T01:43:56.593Z,0
2023-03-31T01:44:57.556Z,0
2023-03-31T01:45:58.606Z,0
2023-03-31T01:46:59.554Z,0
2023-03-31T01:48:00.771Z,0
2023-03-31T01:49:02.767Z,0
2023-03-31T01:50:03.593Z,0
2023-03-31T01:51:04.770Z,0
2023-03-31T01:52:05.553Z,0
2023-03-31T01:53:06.675Z,0
2023-03-31T01:54:07.555Z,0
2023-03-31T01:55:08.523Z,0
2023-03-31T01:56:09.517Z,0
2023-03-31T01:57:10.617Z,0
2023-03-31T01:58:11.600Z,0
2023-03-31T01:59:12.555Z,0
2023-03-31T02:00:13.529Z,0
2023-03-31T02:01:14.587Z,0
2023-03-31T02:02:15.713Z,0
2023-03-31T02:03:16.680Z,0
2023-03-31T02:04:17.592Z,0
2023-03-31T02:05:18.774Z,0
2023-03-31T02:06:19.636Z,0
2023-03-31T02:07:20.603Z,0
2023-03-31T02:08:21.880Z,0
2023-03-31T02:09:23.538Z,0
2023-03-31T02:10:24.883Z,0
2023-03-31T02:11:26.576Z,0
2023-03-31T02:12:27.557Z,0
2023-03-31T02:13:28.895Z,0
2023-03-31T02:14:30.593Z,0
2023-03-31T02:15:31.574Z,0
2023-03-31T02:16:32.603Z,0
2023-03-31T02:17:33.593Z,0
2023-03-31T02:18:34.654Z,0
2023-03-31T02:19:35.630Z,0
2023-03-31T02:20:36.561Z,0
2023-03-31T02:21:37.554Z,0
2023-03-31T02:22:38.746Z,0
2023-03-31T02:23:39.657Z,0
2023-03-31T02:24:40.533Z,0
2023-03-31T02:25:41.582Z,0
2023-03-31T02:26:42.655Z,0
2023-03-31T02:27:43.682Z,0
2023-03-31T02:28:44.994Z,0
2023-03-31T02:29:46.591Z,0
2023-03-31T02:30:47.594Z,0
2023-03-31T02:31:48.560Z,0
2023-03-31T02:32:50.261Z,0
2023-03-31T02:33:51.580Z,0
2023-03-31T02:34:52.564Z,0
2023-03-31T02:35:53.558Z,0
2023-03-31T02:36:54.612Z,0
2023-03-31T02:37:55.674Z,0
2023-03-31T02:38:56.613Z,0
2023-03-31T02:39:57.714Z,0
2023-03-31T02:40:59.735Z,0
2023-03-31T02:42:01.564Z,0
2023-03-31T02:43:02.573Z,0
2023-03-31T02:44:04.561Z,0
2023-03-31T02:45:06.736Z,0
2023-03-31T02:46:08.007Z,0
2023-03-31T02:47:08.610Z,0
2023-03-31T02:48:10.564Z,0
2023-03-31T02:49:11.654Z,0
2023-03-31T02:50:12.646Z,0
2023-03-31T02:51:13.530Z,0
2023-03-31T02:52:14.596Z,0
2023-03-31T02:53:15.624Z,0
2023-03-31T02:54:16.656Z,0
2023-03-31T02:55:17.982Z,0
2023-03-31T02:56:19.635Z,0
2023-03-31T02:57:20.771Z,0
2023-03-31T02:58:22.000Z,0
2023-03-31T02:59:23.958Z,0
2023-03-31T03:00:25.622Z,0
2023-03-31T03:01:26.633Z,0
2023-03-31T03:02:27.690Z,0
2023-03-31T03:03:28.581Z,0
2023-03-31T03:04:29.684Z,0.1
2023-03-31T03:05:30.588Z,0
2023-03-31T03:06:31.605Z,0
2023-03-31T03:07:32.616Z,0
2023-03-31T03:08:33.619Z,0
2023-03-31T03:09:34.803Z,0
2023-03-31T03:10:35.580Z,0
2023-03-31T03:11:36.722Z,0
2023-03-31T03:12:37.856Z,0.22
2023-03-31T03:13:39.495Z,0
2023-03-31T03:14:40.677Z,0
2023-03-31T03:15:41.593Z,0
2023-03-31T03:16:42.533Z,0
2023-03-31T03:17:43.660Z,0
2023-03-31T03:18:44.597Z,0.19
2023-03-31T03:19:45.638Z,0.18
2023-03-31T03:20:46.646Z,0
2023-03-31T03:21:47.671Z,0
2023-03-31T03:22:48.518Z,0.15
2023-03-31T03:23:49.601Z,0
2023-03-31T03:24:50.914Z,0
2023-03-31T03:25:52.606Z,0
2023-03-31T03:26:53.766Z,0
2023-03-31T03:27:54.603Z,0
2023-03-31T03:28:55.550Z,0.28
2023-03-31T03:29:57.208Z,0
2023-03-31T03:30:58.943Z,0.15
2023-03-31T03:32:00.685Z,0
2023-03-31T03:33:01.656Z,0
2023-03-31T03:34:02.518Z,0
2023-03-31T03:35:03.640Z,0
2023-03-31T03:36:04.975Z,0
2023-03-31T03:37:05.602Z,0
2023-03-31T03:38:06.625Z,0
2023-03-31T03:39:07.697Z,0
2023-03-31T03:40:08.626Z,0
2023-03-31T03:41:09.597Z,0
2023-03-31T03:42:10.555Z,0
2023-03-31T03:43:11.627Z,0
2023-03-31T03:44:12.590Z,0
2023-03-31T03:45:13.867Z,0
2023-03-31T03:46:15.643Z,0
2023-03-31T03:47:16.641Z,0
2023-03-31T03:48:17.629Z,0
2023-03-31T03:49:18.627Z,0
2023-03-31T03:50:19.740Z,0
2023-03-31T03:51:20.606Z,0.18
2023-03-31T03:52:21.627Z,0
2023-03-31T03:53:22.587Z,0.08
2023-03-31T03:54:23.652Z,0
2023-03-31T03:55:24.759Z,0
2023-03-31T03:56:25.665Z,0
2023-03-31T03:57:26.704Z,0
2023-03-31T03:58:27.604Z,0.29
2023-03-31T03:59:28.594Z,0
2023-03-31T04:00:29.598Z,0
2023-03-31T04:01:30.570Z,0.21
2023-03-31T04:02:31.649Z,0
2023-03-31T04:03:32.637Z,0
2023-03-31T04:04:34.038Z,0
2023-03-31T04:05:35.722Z,0.04
2023-03-31T04:06:36.656Z,0
2023-03-31T04:07:37.933Z,0
2023-03-31T04:08:39.718Z,0.05
2023-03-31T04:09:40.633Z,0.34
2023-03-31T04:10:41.677Z,0
2023-03-31T04:11:42.657Z,0
2023-03-31T04:12:43.513Z,0
2023-03-31T04:13:44.711Z,0.27
2023-03-31T04:14:45.713Z,0
2023-03-31T04:15:46.840Z,0
2023-03-31T04:16:47.674Z,0
2023-03-31T04:17:48.626Z,0.11
2023-03-31T04:18:51.192Z,0
2023-03-31T04:19:53.191Z,0
2023-03-31T04:20:55.231Z,0
2023-03-31T04:21:57.197Z,0
2023-03-31T04:22:58.665Z,0
2023-03-31T04:24:01.110Z,0
2023-03-31T04:25:02.592Z,0
2023-03-31T04:26:04.197Z,0.06
2023-03-31T04:27:04.610Z,0
2023-03-31T04:28:05.598Z,0
2023-03-31T04:29:06.890Z,0
2023-03-31T04:30:08.591Z,0
2023-03-31T04:31:09.909Z,0.39
2023-03-31T04:32:12.057Z,0.08
2023-03-31T04:33:13.657Z,0
2023-03-31T04:34:14.638Z,0
2023-03-31T04:35:15.657Z,0
2023-03-31T04:36:16.687Z,0
2023-03-31T04:37:17.622Z,0
2023-03-31T04:38:19.071Z,0
2023-03-31T04:39:21.129Z,0
2023-03-31T04:40:22.840Z,0
2023-03-31T04:41:24.910Z,0
2023-03-31T04:42:26.835Z,0
2023-03-31T04:43:27.638Z,0
2023-03-31T04:44:28.712Z,0
2023-03-31T04:45:31.041Z,0
2023-03-31T04:46:33.506Z,0
2023-03-31T04:47:35.215Z,0
2023-03-31T04:48:37.497Z,0
2023-03-31T04:49:38.603Z,0
2023-03-31T04:50:39.625Z,0
2023-03-31T04:51:40.686Z,0
2023-03-31T04:52:41.646Z,0
2023-03-31T04:53:42.891Z,0
2023-03-31T04:54:43.589Z,0
2023-03-31T04:55:44.610Z,0
2023-03-31T04:56:45.737Z,0
2023-03-31T04:57:46.642Z,0
2023-03-31T04:58:47.628Z,0
2023-03-31T04:59:49.307Z,0
2023-03-31T05:00:51.852Z,0
2023-03-31T05:01:53.940Z,0
2023-03-31T05:02:55.869Z,0
2023-03-31T05:03:57.712Z,0
2023-03-31T05:04:58.573Z,0
2023-03-31T05:06:00.026Z,0.18
2023-03-31T05:07:02.177Z,0
2023-03-31T05:08:04.133Z,0
2023-03-31T05:09:05.714Z,0
2023-03-31T05:10:06.734Z,0
2023-03-31T05:11:08.616Z,0.07
2023-03-31T05:12:09.875Z,0
2023-03-31T05:13:11.816Z,0
2023-03-31T05:14:13.055Z,0.13
2023-03-31T05:15:14.593Z,0.22
2023-03-31T05:16:15.682Z,0.08
2023-03-31T05:17:16.798Z,0
2023-03-31T05:18:17.760Z,0.07
2023-03-31T05:19:18.584Z,0.14
2023-03-31T05:20:20.557Z,0.38
2023-03-31T05:21:23.263Z,0
2023-03-31T05:22:24.656Z,0
2023-03-31T05:23:25.751Z,0.1
2023-03-31T05:24:27.681Z,0.09
2023-03-31T05:25:28.599Z,0
2023-03-31T05:26:29.628Z,0
2023-03-31T05:27:30.986Z,0
2023-03-31T05:28:32.848Z,0.1
2023-03-31T05:29:33.699Z,0
2023-03-31T05:30:34.982Z,0
2023-03-31T05:31:37.270Z,0
2023-03-31T05:32:38.714Z,0
2023-03-31T05:33:39.924Z,0.21
2023-03-31T05:34:40.669Z,0
2023-03-31T05:35:41.600Z,0
2023-03-31T05:36:42.647Z,0
2023-03-31T05:37:43.608Z,0
2023-03-31T05:38:44.679Z,0
2023-03-31T05:39:45.701Z,0
2023-03-31T05:40:46.976Z,0.08
2023-03-31T05:41:48.798Z,0
2023-03-31T05:42:49.797Z,0.54
2023-03-31T05:43:50.623Z,0.08
2023-03-31T05:44:51.682Z,0.29
2023-03-31T05:45:52.930Z,0.11
2023-03-31T05:46:53.640Z,0.22
2023-03-31T05:47:54.714Z,0
2023-03-31T05:48:56.273Z,0.1
2023-03-31T05:49:57.920Z,0.1
2023-03-31T05:51:00.916Z,0.17
2023-03-31T05:52:02.938Z,0.12
2023-03-31T05:53:04.782Z,0.22
2023-03-31T05:54:06.872Z,0.34
2023-03-31T05:55:08.049Z,0.23
2023-03-31T05:56:10.290Z,0.72
2023-03-31T05:57:11.706Z,1.18
2023-03-31T05:58:12.940Z,0.61
2023-03-31T05:59:15.189Z,0.63
2023-03-31T06:00:15.709Z,0.34
2023-03-31T06:01:18.229Z,0.42
2023-03-31T06:02:18.628Z,0.36
2023-03-31T06:03:19.706Z,0.34
2023-03-31T06:04:20.943Z,0.35
2023-03-31T06:05:22.144Z,0.1
2023-03-31T06:06:23.782Z,0.1
2023-03-31T06:07:24.636Z,1.04
2023-03-31T06:08:25.642Z,0.61
2023-03-31T06:09:26.627Z,0.54
2023-03-31T06:10:27.662Z,0.29
2023-03-31T06:11:28.632Z,0.52
2023-03-31T06:12:29.665Z,0.3
2023-03-31T06:13:30.562Z,0.87
2023-03-31T06:14:31.601Z,0.56
2023-03-31T06:15:32.584Z,0.25
2023-03-31T06:16:33.681Z,0.11
2023-03-31T06:17:36.207Z,0.57
2023-03-31T06:18:35.650Z,0.32
2023-03-31T06:19:36.753Z,0.61
2023-03-31T06:20:37.584Z,0.65
2023-03-31T06:21:38.654Z,0.66
2023-03-31T06:22:39.663Z,0.27
2023-03-31T06:23:40.905Z,0.21
2023-03-31T06:24:41.744Z,0.22
2023-03-31T06:25:50.696Z,0.41
2023-03-31T06:26:45.085Z,0.56
2023-03-31T06:27:47.143Z,0.38
2023-03-31T06:28:48.670Z,0.42
2023-03-31T06:29:49.602Z,0.31
2023-03-31T06:30:50.856Z,0.69
2023-03-31T06:31:52.785Z,0.98
2023-03-31T06:32:53.905Z,0.31
2023-03-31T06:33:54.771Z,0.62
2023-03-31T06:34:55.716Z,0.37
2023-03-31T06:35:56.698Z,0.7
2023-03-31T06:36:57.607Z,0.72
2023-03-31T06:37:58.703Z,0.13
2023-03-31T06:38:59.636Z,0.18
2023-03-31T06:40:00.740Z,0.69
2023-03-31T06:41:01.748Z,0.78
2023-03-31T06:42:03.114Z,0.49
2023-03-31T06:43:04.685Z,0.72
2023-03-31T06:44:05.730Z,0.69
2023-03-31T06:45:06.820Z,0.73
2023-03-31T06:46:07.954Z,0.92
2023-03-31T06:47:08.665Z,0.2
2023-03-31T06:48:10.002Z,0.78
2023-03-31T06:49:11.769Z,0.43
2023-03-31T06:50:12.620Z,0.37
2023-03-31T06:51:13.941Z,0.31
2023-03-31T06:52:15.768Z,0.97
2023-03-31T06:53:16.753Z,0.82
2023-03-31T06:54:17.751Z,0.82
2023-03-31T06:55:19.804Z,1.23
2023-03-31T06:56:20.641Z,1.34
2023-03-31T06:57:21.843Z,1.16
2023-03-31T06:58:23.299Z,0.63
2023-03-31T06:59:24.598Z,0.69
2023-03-31T07:00:25.624Z,0.86
2023-03-31T07:01:26.735Z,1.16
2023-03-31T07:02:27.736Z,1.03
2023-03-31T07:03:29.831Z,1.21
2023-03-31T07:04:31.141Z,0.72
2023-03-31T07:05:32.756Z,1.08
2023-03-31T07:06:33.781Z,0.59
2023-03-31T07:07:35.683Z,0.82
2023-03-31T07:08:37.105Z,1.31
2023-03-31T07:09:38.760Z,0.66
2023-03-31T07:10:39.687Z,0.46
2023-03-31T07:11:40.909Z,0.49
2023-03-31T07:12:43.193Z,0.84
2023-03-31T07:13:44.736Z,0.35
2023-03-31T07:14:45.846Z,0.38
2023-03-31T07:15:47.985Z,0.4
2023-03-31T07:16:49.136Z,0.24
2023-03-31T07:17:50.610Z,0.45
2023-03-31T07:18:51.952Z,0.95
2023-03-31T07:19:53.016Z,0.86
2023-03-31T07:20:54.784Z,0.61
2023-03-31T07:21:55.873Z,0.54
2023-03-31T07:22:58.517Z,1.05
2023-03-31T07:23:59.801Z,1.09
2023-03-31T07:25:00.834Z,0.72
2023-03-31T07:26:02.271Z,0.48
2023-03-31T07:27:04.056Z,0.73
2023-03-31T07:28:05.791Z,0.46
2023-03-31T07:29:07.235Z,0.39
2023-03-31T07:30:09.034Z,0.38
2023-03-31T07:31:11.036Z,0.42
2023-03-31T07:32:12.905Z,0.75
2023-03-31T07:33:13.709Z,1.15
2023-03-31T07:34:15.054Z,0
2023-03-31T07:35:16.731Z,0.4
2023-03-31T07:36:18.413Z,0.45
2023-03-31T07:37:19.667Z,0.44
2023-03-31T07:38:20.744Z,0.68
2023-03-31T07:39:22.398Z,0.58
2023-03-31T07:40:23.619Z,0.4
2023-03-31T07:41:24.666Z,0.31
2023-03-31T07:42:25.947Z,0.47
2023-03-31T07:43:26.816Z,0.61
2023-03-31T07:44:27.716Z,0.12
2023-03-31T07:45:29.056Z,0.61
2023-03-31T07:46:31.164Z,0.2
2023-03-31T07:47:33.679Z,0.04
2023-03-31T07:48:34.736Z,1.59
2023-03-31T07:49:35.724Z,0.69
2023-03-31T07:50:36.855Z,0.9
2023-03-31T07:51:38.356Z,0.33
2023-03-31T07:52:39.762Z,0.61
2023-03-31T07:53:40.778Z,1.19
2023-03-31T07:54:42.318Z,0.44
2023-03-31T07:55:44.109Z,0.51
2023-03-31T07:56:45.708Z,0.51
2023-03-31T07:57:47.013Z,0.76
2023-03-31T07:58:48.746Z,0.71
2023-03-31T07:59:49.814Z,0.41
2023-03-31T08:00:51.518Z,0.84
2023-03-31T08:01:52.874Z,1.35
2023-03-31T08:02:54.578Z,1.32
2023-03-31T08:03:56.481Z,0.95
2023-03-31T08:04:57.923Z,1.34
2023-03-31T08:05:58.734Z,1.41
2023-03-31T08:06:59.865Z,0.89
2023-03-31T08:08:01.669Z,0.53
2023-03-31T08:09:02.764Z,0.96
2023-03-31T08:10:05.144Z,1.23
2023-03-31T08:11:06.905Z,0.55
2023-03-31T08:12:07.804Z,0.8
2023-03-31T08:13:11.011Z,0.4
2023-03-31T08:14:12.924Z,1.04
2023-03-31T08:15:15.399Z,1.53
2023-03-31T08:16:16.787Z,1.61
2023-03-31T08:17:18.071Z,0.68
2023-03-31T08:18:19.688Z,1.27
2023-03-31T08:19:20.958Z,1.58
2023-03-31T08:20:22.326Z,0.8
2023-03-31T08:21:24.642Z,1
2023-03-31T08:22:24.947Z,1.16
2023-03-31T08:23:27.058Z,0.81
2023-03-31T08:24:29.270Z,0.86
2023-03-31T08:25:30.790Z,1.27
2023-03-31T08:26:31.737Z,1.13
2023-03-31T08:27:33.088Z,1.56
2023-03-31T08:28:35.239Z,1.09
2023-03-31T08:29:36.958Z,0.55
2023-03-31T08:30:39.264Z,1.17
2023-03-31T08:31:40.752Z,1.82
2023-03-31T08:32:41.988Z,0.89
2023-03-31T08:33:43.224Z,0.94
2023-03-31T08:34:44.793Z,1.15
2023-03-31T08:35:46.126Z,1.11
2023-03-31T08:36:48.240Z,0.97
2023-03-31T08:37:49.751Z,0.38
2023-03-31T08:38:50.814Z,1.33
2023-03-31T08:39:51.820Z,0.83
2023-03-31T08:40:53.117Z,1.48
2023-03-31T08:41:54.768Z,0.75
2023-03-31T08:42:55.893Z,0.34
2023-03-31T08:43:57.059Z,0.13
2023-03-31T08:44:57.690Z,0.18
2023-03-31T08:45:58.894Z,0.54
2023-03-31T08:46:59.718Z,1.25
2023-03-31T08:48:00.752Z,1.6
2023-03-31T08:49:01.710Z,1.04
2023-03-31T08:50:02.754Z,0.87
2023-03-31T08:51:04.777Z,0.65
2023-03-31T08:52:05.759Z,0.48
2023-03-31T08:53:06.743Z,0.51
2023-03-31T08:54:08.059Z,0.97
2023-03-31T08:55:10.018Z,0.51
2023-03-31T08:56:11.117Z,0.48
2023-03-31T08:57:12.911Z,0.65
2023-03-31T08:58:13.772Z,0.53
2023-03-31T08:59:14.715Z,1.01
2023-03-31T09:00:15.724Z,0.69
2023-03-31T09:01:16.880Z,1.02
2023-03-31T09:02:18.025Z,1.05
2023-03-31T09:03:19.179Z,0.7
2023-03-31T09:04:21.187Z,0.83
2023-03-31T09:05:22.789Z,0.51
2023-03-31T09:06:24.025Z,0.8
2023-03-31T09:07:25.694Z,1.16
2023-03-31T09:08:26.729Z,0.71
2023-03-31T09:09:27.724Z,1.12
2023-03-31T09:10:28.724Z,0.99
2023-03-31T09:11:30.096Z,0.86
2023-03-31T09:12:31.881Z,0.91
2023-03-31T09:13:32.964Z,0.63
2023-03-31T09:14:33.748Z,0.95
2023-03-31T09:15:34.997Z,1.06
2023-03-31T09:16:35.787Z,0.58
2023-03-31T09:17:36.811Z,1
2023-03-31T09:18:37.913Z,0.13
2023-03-31T09:19:38.956Z,0.98
2023-03-31T09:20:39.967Z,2.2
2023-03-31T09:21:41.008Z,1.33
2023-03-31T09:22:41.755Z,1.67
2023-03-31T09:23:42.757Z,0.73
2023-03-31T09:24:43.717Z,0.5
2023-03-31T09:25:44.902Z,1.24
2023-03-31T09:26:46.185Z,1.63
2023-03-31T09:27:48.060Z,1.49
2023-03-31T09:28:49.891Z,0.59
2023-03-31T09:29:51.820Z,0.2
2023-03-31T09:30:53.597Z,1.48
2023-03-31T09:31:54.886Z,1.09
2023-03-31T09:32:55.917Z,0.95
2023-03-31T09:33:56.736Z,2.4
2023-03-31T09:34:57.717Z,0.92
2023-03-31T09:35:58.827Z,1.54
2023-03-31T09:37:00.298Z,1.18
2023-03-31T09:38:01.829Z,0.89
2023-03-31T09:39:02.838Z,0.36
2023-03-31T09:40:03.987Z,1.05
2023-03-31T09:41:04.734Z,1.62
2023-03-31T09:42:05.802Z,1.05
2023-03-31T09:43:06.697Z,1.58
2023-03-31T09:44:07.767Z,0.97
2023-03-31T09:45:08.800Z,0.94
2023-03-31T09:46:10.830Z,1.18
2023-03-31T09:47:11.793Z,0.84
2023-03-31T09:48:12.916Z,0.49
2023-03-31T09:49:13.947Z,0.86
2023-03-31T09:50:16.104Z,1.17
2023-03-31T09:51:17.756Z,1.07
2023-03-31T09:52:18.959Z,0.87
2023-03-31T09:53:20.893Z,0.99
2023-03-31T09:54:21.818Z,1.05
2023-03-31T09:55:36.441Z,0.38
2023-03-31T09:56:24.836Z,1.44
2023-03-31T09:57:25.875Z,0.72
2023-03-31T09:58:26.748Z,0.48
2023-03-31T09:59:28.225Z,1.58
2023-03-31T10:00:30.001Z,1.11
2023-03-31T10:01:31.121Z,1.01
2023-03-31T10:02:32.939Z,1.08
2023-03-31T10:03:33.870Z,1.22
2023-03-31T10:04:35.030Z,1
2023-03-31T10:05:35.971Z,0.96
2023-03-31T10:06:36.901Z,0.84
2023-03-31T10:07:38.280Z,1.38
2023-03-31T10:08:40.999Z,0.88
2023-03-31T10:09:42.981Z,1.24
2023-03-31T10:10:44.810Z,0.72
2023-03-31T10:11:45.963Z,0.51
2023-03-31T10:12:46.880Z,1.24
2023-03-31T10:13:47.940Z,0.66
2023-03-31T10:14:48.747Z,0.92
2023-03-31T10:15:49.765Z,0.48
2023-03-31T10:16:51.148Z,1.33
2023-03-31T10:17:55.188Z,1.12
2023-03-31T10:18:54.831Z,1.49
2023-03-31T10:19:55.910Z,0.88
2023-03-31T10:20:56.821Z,0.53
2023-03-31T10:21:58.823Z,1.21
2023-03-31T10:22:59.861Z,0.68
2023-03-31T10:24:00.820Z,0.78
2023-03-31T10:25:01.775Z,1.13
2023-03-31T10:26:02.761Z,1.13
2023-03-31T10:27:03.837Z,0.81
2023-03-31T10:28:04.887Z,0.98
2023-03-31T10:29:05.783Z,0.77
2023-03-31T10:30:06.913Z,0.75
2023-03-31T10:31:08.229Z,0.83
2023-03-31T10:32:09.833Z,0.52
2023-03-31T10:33:21.759Z,0.85
2023-03-31T10:34:12.812Z,1.63
2023-03-31T10:35:13.790Z,1.13
2023-03-31T10:36:14.848Z,0.68
2023-03-31T10:37:15.827Z,0.45
2023-03-31T10:38:17.080Z,0.78
2023-03-31T10:39:18.961Z,1.37
2023-03-31T10:40:20.818Z,0.36
2023-03-31T10:41:22.817Z,1.07
2023-03-31T10:42:23.809Z,1.09
2023-03-31T10:43:25.243Z,1.16
2023-03-31T10:44:26.866Z,1.56
2023-03-31T10:45:36.911Z,1.22
2023-03-31T10:46:28.806Z,0.92
2023-03-31T10:47:29.938Z,1.4
2023-03-31T10:48:30.940Z,0.28
2023-03-31T10:49:32.175Z,1.14
2023-03-31T10:50:33.783Z,0.9
2023-03-31T10:51:34.813Z,1.54
2023-03-31T10:52:35.690Z,1.17
2023-03-31T10:53:36.934Z,1.42
2023-03-31T10:54:38.397Z,0.88
2023-03-31T10:55:40.394Z,0.41
2023-03-31T10:56:42.046Z,1.4
2023-03-31T10:57:42.877Z,0.81
2023-03-31T10:58:51.971Z,1.64
2023-03-31T10:59:45.958Z,1.09
2023-03-31T11:00:47.838Z,1.37
2023-03-31T11:01:48.864Z,1.19
2023-03-31T11:02:49.833Z,0.8
2023-03-31T11:03:51.461Z,1.45
2023-03-31T11:04:52.856Z,1.03
2023-03-31T11:05:53.862Z,0.88
2023-03-31T11:06:54.853Z,0.73
2023-03-31T11:07:55.879Z,1.11
2023-03-31T11:08:56.824Z,0.74
2023-03-31T11:09:58.309Z,0.67
2023-03-31T11:11:00.102Z,0.54
2023-03-31T11:12:00.861Z,0.34
2023-03-31T11:13:01.815Z,0.91
2023-03-31T11:14:02.883Z,0.99
2023-03-31T11:15:03.823Z,1.2
2023-03-31T11:16:05.043Z,1.37
2023-03-31T11:17:06.995Z,0.83
2023-03-31T11:18:09.040Z,1.02
2023-03-31T11:19:10.991Z,0.5
2023-03-31T11:20:13.529Z,1.08
2023-03-31T11:21:14.913Z,1.31
2023-03-31T11:22:16.093Z,1.08
2023-03-31T11:23:18.221Z,0.91
2023-03-31T11:24:19.822Z,0.7
2023-03-31T11:25:21.094Z,0.94
2023-03-31T11:26:23.502Z,0.64
2023-03-31T11:27:25.358Z,1.35
2023-03-31T11:28:27.490Z,1.37
2023-03-31T11:29:29.165Z,1.24
2023-03-31T11:30:30.872Z,0.83
2023-03-31T11:31:31.935Z,1.35
2023-03-31T11:32:33.154Z,1.65
2023-03-31T11:33:35.069Z,1.48
2023-03-31T11:34:35.833Z,1.65
2023-03-31T11:35:36.873Z,0.67
2023-03-31T11:36:38.010Z,1.46
2023-03-31T11:37:38.866Z,1.21
2023-03-31T11:38:39.857Z,1.4
2023-03-31T11:39:40.870Z,0.88
2023-03-31T11:40:41.784Z,0.87
2023-03-31T11:41:42.825Z,2.29
2023-03-31T11:42:44.663Z,1.25
2023-03-31T11:43:46.142Z,0.85
2023-03-31T11:44:48.029Z,1.45
2023-03-31T11:45:50.141Z,0.79
2023-03-31T11:46:52.332Z,1.18
2023-03-31T11:47:54.279Z,1.3
2023-03-31T11:48:56.191Z,1.8
2023-03-31T11:49:57.926Z,1.52
2023-03-31T11:50:58.854Z,1.11
2023-03-31T11:51:59.739Z,1.16
2023-03-31T11:53:00.913Z,0.88
2023-03-31T11:54:02.681Z,1.14
2023-03-31T11:55:04.382Z,1.19
2023-03-31T11:56:06.096Z,1.19
2023-03-31T11:57:07.422Z,1.44
2023-03-31T11:58:09.003Z,0.85
2023-03-31T11:59:09.931Z,1.18
2023-03-31T12:00:10.901Z,1.69
2023-03-31T12:01:11.823Z,1.18
2023-03-31T12:02:12.900Z,1.98
2023-03-31T12:03:14.193Z,1.39
2023-03-31T12:04:15.887Z,1.24
2023-03-31T12:05:16.972Z,0.67
2023-03-31T12:06:17.906Z,0.86
2023-03-31T12:07:18.915Z,0.59
2023-03-31T12:08:20.333Z,1.36
2023-03-31T12:09:21.956Z,0.58
2023-03-31T12:10:23.260Z,1.75
2023-03-31T12:11:24.947Z,0.93
2023-03-31T12:12:26.093Z,0.49
2023-03-31T12:13:26.963Z,0.81
2023-03-31T12:14:28.102Z,1.99
2023-03-31T12:15:29.165Z,2.01
2023-03-31T12:16:31.739Z,1.52
2023-03-31T12:17:33.559Z,1.73
2023-03-31T12:18:34.975Z,1.27
2023-03-31T12:19:35.874Z,1.36
2023-03-31T12:20:36.928Z,1.22
2023-03-31T12:21:37.871Z,2.02
2023-03-31T12:22:38.875Z,1.47
2023-03-31T12:23:39.894Z,1.33
2023-03-31T12:24:40.875Z,1.44
2023-03-31T12:25:41.958Z,1.56
2023-03-31T12:26:43.007Z,0.77
2023-03-31T12:27:44.270Z,1.42
2023-03-31T12:28:46.840Z,1.51
2023-03-31T12:29:48.133Z,1.71
2023-03-31T12:30:50.582Z,1.04
2023-03-31T12:31:51.931Z,1.27
2023-03-31T12:32:53.082Z,0.83
2023-03-31T12:33:53.960Z,0.81
2023-03-31T12:34:55.205Z,1.53
2023-03-31T12:35:57.008Z,0.99
2023-03-31T12:36:57.892Z,1.29
2023-03-31T12:37:58.914Z,0.68
2023-03-31T12:39:00.444Z,0.82
2023-03-31T12:40:02.374Z,1.95
2023-03-31T12:41:04.369Z,1.39
2023-03-31T12:42:06.228Z,1.62
2023-03-31T12:43:08.061Z,1.08
2023-03-31T12:44:08.902Z,2.13
2023-03-31T12:45:09.950Z,0.99
2023-03-31T12:46:11.315Z,0.8
2023-03-31T12:47:12.884Z,1.46
2023-03-31T12:48:13.872Z,1.62
2023-03-31T12:49:15.277Z,2.06
2023-03-31T12:50:16.915Z,1.14
2023-03-31T12:51:17.949Z,1
2023-03-31T12:52:18.886Z,0.8
2023-03-31T12:53:19.900Z,0.67
2023-03-31T12:54:20.943Z,0.6
2023-03-31T12:55:21.910Z,1.51
2023-03-31T12:56:22.966Z,0.58
2023-03-31T12:57:24.002Z,0.6
2023-03-31T12:58:25.367Z,0.26
2023-03-31T12:59:27.127Z,0.78
2023-03-31T13:00:29.240Z,0.4
2023-03-31T13:01:31.007Z,0.15
2023-03-31T13:02:32.909Z,0.43
2023-03-31T13:03:34.013Z,0.75
2023-03-31T13:04:34.896Z,0.56
2023-03-31T13:05:36.005Z,0.61
2023-03-31T13:06:36.940Z,0.22
2023-03-31T13:07:37.869Z,0.73
2023-03-31T13:08:38.876Z,0.75
2023-03-31T13:09:39.866Z,0.7
2023-03-31T13:10:40.860Z,0.95
2023-03-31T13:11:42.261Z,0.96
2023-03-31T13:12:43.952Z,1.14
2023-03-31T13:13:54.445Z,1.29
2023-03-31T13:14:46.011Z,0.84
2023-03-31T13:15:46.864Z,0.37
2023-03-31T13:16:48.267Z,0.41
2023-03-31T13:17:50.270Z,0.43
2023-03-31T13:18:51.995Z,0.8
2023-03-31T13:19:52.855Z,0.49
2023-03-31T13:20:53.986Z,0.53
2023-03-31T13:21:54.993Z,0.23
2023-03-31T13:22:55.958Z,0.38
2023-03-31T13:23:58.096Z,0.74
2023-03-31T13:24:59.026Z,1.49
2023-03-31T13:25:59.958Z,0.17
2023-03-31T13:27:00.848Z,0.39
2023-03-31T13:28:01.844Z,1
2023-03-31T13:29:02.927Z,0.31
2023-03-31T13:30:03.868Z,0.24
2023-03-31T13:31:04.911Z,0.8
2023-03-31T13:32:05.947Z,0.52
2023-03-31T13:33:07.122Z,0.49
2023-03-31T13:34:07.947Z,0.08
2023-03-31T13:35:09.351Z,0.12
2023-03-31T13:36:11.164Z,0.16
2023-03-31T13:37:13.072Z,0
2023-03-31T13:38:13.985Z,0.6
2023-03-31T13:39:14.856Z,0.26
2023-03-31T13:40:16.019Z,0
2023-03-31T13:41:16.990Z,0.24
2023-03-31T13:42:18.334Z,0.28
2023-03-31T13:45:30.578Z,0
2023-03-31T13:46:33.465Z,0
2023-03-31T13:47:35.097Z,0.17
2023-03-31T13:48:35.861Z,0
2023-03-31T13:49:36.923Z,0
2023-03-31T13:50:37.962Z,0
2023-03-31T13:51:38.865Z,0
2023-03-31T13:52:40.616Z,0
2023-03-31T13:53:41.874Z,0
2023-03-31T13:54:42.839Z,0
2023-03-31T13:55:43.869Z,0
2023-03-31T13:56:44.948Z,0
2023-03-31T13:57:46.122Z,0
2023-03-31T13:58:48.015Z,0.27
2023-03-31T13:59:48.916Z,0
2023-03-31T14:00:50.155Z,0
2023-03-31T14:01:50.901Z,0
2023-03-31T14:02:52.111Z,0
2023-03-31T14:03:53.100Z,0
2023-03-31T14:04:55.027Z,0
2023-03-31T14:05:56.087Z,0
2023-03-31T14:06:58.098Z,0.48
2023-03-31T14:07:59.958Z,0.18
2023-03-31T14:09:01.905Z,0
2023-03-31T14:10:04.470Z,0
2023-03-31T14:11:06.197Z,0
2023-03-31T14:12:08.341Z,0
2023-03-31T14:13:10.464Z,0
2023-03-31T14:14:12.327Z,0.49
2023-03-31T14:15:13.881Z,0